Terminal Aerodrome Forecast
Issued by NWS

Home | Current Version | Previous Version | Text Only | Print | Product List | Glossary Off
Versions: 1 2 3 4 5 6 7 8 9 10 11 12 13 14 15 16 17 18 19 20 21 22

051
FTUS43 KICT 242159 AAA
TAFCNU
TAF AMD
KCNU 242159Z 2422/2518 17015G25KT P6SM SCT015 BKN025
      TEMPO 2422/2424 BKN015
     FM250000 16015KT P6SM VCTS BKN090CB
     FM250300 11006KT P6SM VCTS SCT030 OVC080CB
     FM250500 04006KT P6SM VCSH OVC035
     FM250900 35007KT P6SM VCSH OVC040
     FM251000 33010KT P6SM VCSH OVC015=

USA.gov is the U.S. government's official web portal to all federal, state and local government web resources and services.